KBMQ

Burnet Municipal Kate Craddock Field Airport

Burnet, Texas, USA
METAR KBMQ 170753Z AUTO 00000KT 10SM FEW005 OVC011 07/06 A3003 RMK AO2 SLP168 T00670061
Observed Flight Rules
Dec-17 @ 07:53 UTC (25 minutes ago) Marginal Visual Flight Rules
Wind Visibility Clouds
Calm 10 miles
  • Few at 500' AGL
  • Overcast at 1,100' AGL
Temperatures Readings
Current 7°C / 45°F
Dewpoint 6°C / 43°F
Humidity 93%
Altimeter 30.03" Hg
Pressure 1016.8 hPa
Elevation 389
METAR KBMQ 170753Z AUTO 00000KT 10SM FEW005 OVC011 07/06 A3003 RMK AO2 SLP168 T00670061
Observed Flight Rules
Dec-17 @ 07:53 UTC
(25 minutes ago)
MVFR
Wind Visibility
Calm 10 miles
Clouds
  • Few at 500' AGL
  • Overcast at 1,100' AGL
Temperature Dewpoint
7°C / 45°F 6°C / 43°F
Humidity Altimeter Pressure
93% 30.03" Hg 1016.8 hPa